Time;durP1;ratioP1;P1;durP2;ratioP2;P2;SDS_P1;SDS_P2;PMS_P1;PMS_P2;Temp;Humidity;BMP_temperature;BMP_pressure;BME280_temperature;BME280_humidity;BME280_pressure;Samples;Min_cycle;Max_cycle;Signal;HPM_P1;HPM_P2
2023/01/21 00:02:21;;;;;;;7.45;6.38;;;7.50;62.90;;;;;;5050642;28;20229;-71
2023/01/21 00:04:48;;;;;;;8.00;6.57;;;7.50;63.10;;;;;;5051166;28;20205;-71
2023/01/21 00:07:15;;;;;;;7.40;6.43;;;7.50;63.00;;;;;;5050865;28;20480;-73
2023/01/21 00:09:42;;;;;;;9.40;6.13;;;7.50;63.00;;;;;;5054628;28;20252;-72
2023/01/21 00:12:11;;;;;;;7.27;6.07;;;7.50;63.70;;;;;;5054576;28;20666;-71
2023/01/21 00:14:38;;;;;;;7.80;5.75;;;7.50;62.70;;;;;;5054687;28;20448;-72
2023/01/21 00:17:05;;;;;;;8.57;6.27;;;7.50;62.30;;;;;;5055142;28;20221;-72
2023/01/21 00:19:33;;;;;;;6.13;5.50;;;7.50;61.90;;;;;;5054574;28;20488;-72
2023/01/21 00:22:00;;;;;;;6.10;5.05;;;7.60;61.70;;;;;;5054899;28;20212;-72
2023/01/21 00:24:27;;;;;;;5.33;4.40;;;7.60;61.40;;;;;;5077612;28;20228;-70
2023/01/21 00:26:54;;;;;;;6.20;5.15;;;7.60;61.40;;;;;;5094913;28;20865;-71
2023/01/21 00:29:21;;;;;;;5.97;4.65;;;7.60;61.20;;;;;;5094543;28;20625;-71
2023/01/21 00:31:48;;;;;;;5.93;4.72;;;7.60;61.10;;;;;;5104892;28;20196;-71
2023/01/21 00:34:15;;;;;;;5.87;5.13;;;7.60;61.00;;;;;;5115657;28;20204;-71
2023/01/21 00:36:43;;;;;;;7.40;4.80;;;7.60;60.70;;;;;;5114968;28;20544;-71
2023/01/21 00:39:10;;;;;;;5.40;4.60;;;7.60;60.60;;;;;;5115118;28;20448;-71
2023/01/21 00:41:37;;;;;;;4.90;4.30;;;7.60;60.60;;;;;;5114481;28;20208;-71
2023/01/21 00:44:05;;;;;;;5.80;4.82;;;7.60;61.10;;;;;;5114827;28;20948;-71
2023/01/21 00:46:32;;;;;;;6.47;4.80;;;7.60;60.30;;;;;;5114586;28;20315;-71
2023/01/21 00:49:00;;;;;;;6.30;5.07;;;7.60;60.00;;;;;;5115099;28;20200;-71
2023/01/21 00:51:27;;;;;;;5.57;5.00;;;7.60;60.00;;;;;;5114300;28;20203;-72
2023/01/21 00:53:55;;;;;;;7.38;5.03;;;7.60;59.80;;;;;;5115067;28;20929;-71
2023/01/21 00:56:22;;;;;;;6.00;4.60;;;7.60;59.40;;;;;;5114014;28;20230;-71
2023/01/21 00:58:49;;;;;;;5.28;4.78;;;7.60;59.30;;;;;;5078510;28;20215;-71
2023/01/21 01:01:18;;;;;;;5.83;5.00;;;7.60;59.10;;;;;;5114725;28;20210;-73
2023/01/21 01:03:45;;;;;;;5.88;4.97;;;7.50;58.80;;;;;;5114856;28;20452;-73
2023/01/21 01:06:14;;;;;;;5.90;5.23;;;7.50;58.90;;;;;;5114801;28;20582;-71
2023/01/21 01:08:42;;;;;;;7.90;5.53;;;7.50;59.00;;;;;;5114179;28;20472;-72
2023/01/21 01:11:11;;;;;;;6.67;5.73;;;7.50;58.50;;;;;;5114463;28;20711;-73
2023/01/21 01:13:38;;;;;;;7.90;5.67;;;7.50;58.10;;;;;;5113669;28;20541;-73
2023/01/21 01:16:06;;;;;;;7.00;6.22;;;7.60;58.10;;;;;;5114696;28;20465;-73
2023/01/21 01:18:35;;;;;;;6.90;6.20;;;7.50;57.80;;;;;;5113924;28;20207;-70
2023/01/21 01:21:03;;;;;;;7.30;6.30;;;7.50;57.60;;;;;;5113850;28;20449;-72
2023/01/21 01:23:30;;;;;;;8.57;6.53;;;7.50;57.90;;;;;;5113547;28;20279;-72
2023/01/21 01:26:00;;;;;;;8.93;6.85;;;7.50;57.20;;;;;;5114171;28;20194;-71
2023/01/21 01:28:30;;;;;;;8.32;6.70;;;7.40;57.20;;;;;;5117465;28;20555;-71
2023/01/21 01:30:58;;;;;;;8.27;6.70;;;7.50;57.10;;;;;;5121419;28;20290;-72
2023/01/21 01:33:25;;;;;;;8.07;7.20;;;7.40;56.90;;;;;;5095711;28;20201;-71
2023/01/21 01:35:52;;;;;;;10.27;7.90;;;7.40;56.70;;;;;;5098616;28;20216;-70
2023/01/21 01:38:21;;;;;;;9.38;6.50;;;7.30;56.60;;;;;;5103268;28;20228;-72
2023/01/21 01:40:49;;;;;;;7.85;6.47;;;7.30;56.30;;;;;;5103319;28;20295;-72
2023/01/21 01:43:19;;;;;;;8.80;6.57;;;7.30;56.40;;;;;;5093745;28;20243;-71
2023/01/21 01:45:48;;;;;;;7.80;7.00;;;7.40;56.80;;;;;;5093108;28;20211;-72
2023/01/21 01:48:18;;;;;;;7.95;6.53;;;7.30;56.30;;;;;;5057916;28;20719;-71
2023/01/21 01:50:48;;;;;;;9.35;6.68;;;7.30;56.20;;;;;;5092936;28;20571;-72
2023/01/21 01:53:17;;;;;;;8.38;7.00;;;7.30;56.10;;;;;;5093186;28;20201;-73
2023/01/21 01:55:45;;;;;;;9.23;7.28;;;7.30;56.30;;;;;;5092853;28;20212;-71
2023/01/21 01:58:14;;;;;;;8.97;7.17;;;7.30;56.00;;;;;;5093368;28;20251;-70
2023/01/21 02:00:41;;;;;;;8.85;7.20;;;7.30;56.00;;;;;;5092650;28;20454;-72
2023/01/21 02:05:55;;;;;;;9.70;7.50;;;7.20;55.90;;;;;;5093314;28;20191;-71
2023/01/21 02:08:23;;;;;;;9.10;7.07;;;7.20;55.80;;;;;;5092170;28;20213;-71
2023/01/21 02:10:50;;;;;;;8.97;7.63;;;7.20;56.60;;;;;;5093185;28;20207;-71
2023/01/21 02:13:17;;;;;;;11.55;7.97;;;7.10;55.80;;;;;;5092945;28;20447;-71
2023/01/21 02:15:56;;;;;;;8.98;7.50;;;7.10;55.80;;;;;;5091964;28;20224;-71
2023/01/21 02:18:38;;;;;;;10.00;6.90;;;7.10;55.90;;;;;;5092336;28;20199;-72
2023/01/21 02:21:46;;;;;;;10.32;7.80;;;7.10;55.90;;;;;;5093145;28;20275;-72
2023/01/21 02:24:57;;;;;;;8.02;6.97;;;7.10;55.80;;;;;;5025972;28;20241;-71
2023/01/21 02:27:46;;;;;;;8.57;7.10;;;7.00;55.80;;;;;;5051903;28;20210;-70
2023/01/21 02:30:50;;;;;;;8.63;6.85;;;7.00;55.70;;;;;;5052879;28;20562;-71
2023/01/21 02:33:31;;;;;;;10.57;7.03;;;7.00;55.70;;;;;;5031745;28;20187;-70
2023/01/21 02:36:09;;;;;;;9.27;7.00;;;7.00;55.90;;;;;;5032650;28;20190;-70
2023/01/21 02:38:45;;;;;;;9.48;7.32;;;7.00;55.60;;;;;;5031628;28;20248;-71
2023/01/21 02:41:23;;;;;;;7.57;6.75;;;6.90;55.30;;;;;;5033160;28;20240;-72
2023/01/21 02:43:57;;;;;;;8.27;6.72;;;6.90;55.20;;;;;;5032738;28;20226;-72
2023/01/21 02:46:33;;;;;;;8.98;6.93;;;6.90;55.30;;;;;;5031876;28;20186;-72
2023/01/21 02:49:07;;;;;;;7.70;6.78;;;7.10;55.50;;;;;;5032466;28;20191;-72
2023/01/21 02:51:35;;;;;;;9.82;7.32;;;6.80;55.30;;;;;;5031400;28;20381;-71
2023/01/21 02:54:13;;;;;;;8.93;7.28;;;6.80;55.10;;;;;;5031753;28;20210;-71
2023/01/21 02:56:41;;;;;;;9.70;7.20;;;6.80;55.10;;;;;;5031776;28;20191;-73
2023/01/21 02:59:08;;;;;;;10.65;7.82;;;6.80;55.20;;;;;;5031852;28;20245;-71
2023/01/21 03:01:47;;;;;;;9.38;6.85;;;6.80;55.10;;;;;;5031738;28;20641;-70
2023/01/21 03:04:44;;;;;;;9.02;7.43;;;6.70;55.00;;;;;;5031725;28;20644;-72
2023/01/21 03:07:21;;;;;;;8.07;6.80;;;6.70;54.90;;;;;;5030049;28;20226;-72
2023/01/21 03:09:48;;;;;;;9.07;7.30;;;6.70;55.00;;;;;;5031425;28;20194;-71
2023/01/21 03:12:31;;;;;;;10.07;6.95;;;6.70;55.00;;;;;;4996582;28;20290;-72
2023/01/21 03:17:54;;;;;;;10.65;7.35;;;6.60;54.90;;;;;;5031253;28;20671;-70
2023/01/21 03:20:26;;;;;;;10.82;7.15;;;6.60;54.80;;;;;;5029033;28;20200;-71
2023/01/21 03:22:57;;;;;;;9.50;7.57;;;6.70;54.70;;;;;;5031673;28;20205;-71
2023/01/21 03:25:26;;;;;;;9.48;7.00;;;6.50;54.70;;;;;;5070326;28;20240;-71
2023/01/21 03:27:56;;;;;;;10.68;7.40;;;6.50;54.80;;;;;;5071576;28;20231;-72
2023/01/21 03:30:25;;;;;;;7.80;7.00;;;6.60;54.80;;;;;;5019728;28;20209;-70
2023/01/21 03:32:54;;;;;;;8.85;7.00;;;6.50;54.70;;;;;;5108880;28;20202;-71
2023/01/21 03:35:25;;;;;;;8.82;7.28;;;6.50;54.50;;;;;;5111914;28;20243;-72
2023/01/21 03:37:56;;;;;;;9.10;7.38;;;6.50;54.60;;;;;;5111914;28;20188;-71
2023/01/21 03:40:26;;;;;;;8.90;6.90;;;6.50;54.50;;;;;;5112318;28;20746;-71
2023/01/21 03:42:55;;;;;;;9.75;6.88;;;6.40;54.50;;;;;;5111935;28;20200;-71
2023/01/21 03:45:35;;;;;;;10.63;6.95;;;6.40;54.40;;;;;;5111906;28;20223;-71
2023/01/21 03:48:12;;;;;;;7.85;6.60;;;6.40;54.40;;;;;;5111975;28;20215;-71
2023/01/21 03:50:44;;;;;;;10.18;6.88;;;6.40;54.40;;;;;;5110791;28;20190;-70
2023/01/21 03:53:11;;;;;;;9.70;6.70;;;6.40;54.40;;;;;;5111565;28;20211;-71
2023/01/21 03:55:38;;;;;;;9.25;6.93;;;6.30;54.20;;;;;;5110983;28;20290;-72
2023/01/21 03:58:05;;;;;;;7.43;6.35;;;6.30;54.20;;;;;;5111589;28;20196;-71
2023/01/21 04:00:32;;;;;;;7.53;6.45;;;6.30;54.30;;;;;;5111268;28;20208;-72
2023/01/21 04:02:58;;;;;;;7.45;6.20;;;6.30;54.30;;;;;;5111657;28;20294;-72
2023/01/21 04:05:25;;;;;;;9.48;6.53;;;6.30;54.80;;;;;;5111346;28;20207;-72
2023/01/21 04:07:54;;;;;;;8.13;6.40;;;6.20;54.20;;;;;;5111398;28;20306;-71
2023/01/21 04:10:20;;;;;;;8.05;6.18;;;6.20;54.20;;;;;;5111700;28;20340;-71
2023/01/21 04:12:47;;;;;;;8.80;6.43;;;6.30;54.20;;;;;;5111157;28;20568;-71
2023/01/21 04:15:14;;;;;;;8.30;6.85;;;6.30;54.30;;;;;;5111274;28;20230;-71
2023/01/21 04:17:41;;;;;;;9.52;6.50;;;6.10;54.10;;;;;;5111002;28;20196;-71
2023/01/21 04:20:09;;;;;;;6.88;6.03;;;6.10;54.30;;;;;;5111134;28;20246;-71
2023/01/21 04:22:36;;;;;;;8.05;6.43;;;6.10;54.20;;;;;;5110609;28;20211;-70
2023/01/21 04:25:05;;;;;;;7.72;6.40;;;6.20;54.40;;;;;;5111269;28;20235;-70
2023/01/21 04:27:32;;;;;;;7.18;6.25;;;6.10;54.50;;;;;;5110787;28;20699;-71
2023/01/21 04:29:58;;;;;;;7.20;6.50;;;6.10;55.30;;;;;;5111531;28;20299;-71
2023/01/21 04:32:25;;;;;;;9.32;7.47;;;6.10;54.80;;;;;;5096139;28;20729;-70
2023/01/21 04:34:52;;;;;;;8.30;6.90;;;6.00;55.20;;;;;;5090437;28;20226;-71
2023/01/21 04:37:19;;;;;;;9.10;7.18;;;6.00;55.40;;;;;;5091151;28;20563;-71
2023/01/21 04:39:46;;;;;;;8.98;7.30;;;6.00;55.60;;;;;;5090567;28;20208;-70
2023/01/21 04:42:14;;;;;;;9.73;7.95;;;6.00;55.70;;;;;;5091210;28;20207;-72
2023/01/21 04:44:41;;;;;;;8.98;8.07;;;6.00;55.90;;;;;;5090412;28;20211;-72
2023/01/21 04:47:08;;;;;;;9.05;8.15;;;6.00;56.00;;;;;;5090993;28;20247;-70
2023/01/21 04:49:34;;;;;;;12.00;8.48;;;6.00;56.20;;;;;;5090171;28;20218;-72
2023/01/21 04:52:01;;;;;;;11.55;8.70;;;6.00;56.30;;;;;;5090614;28;20204;-71
2023/01/21 04:54:28;;;;;;;10.45;8.52;;;6.00;56.50;;;;;;5090796;28;20566;-72
2023/01/21 04:56:55;;;;;;;9.82;8.50;;;6.00;56.50;;;;;;5094269;28;20299;-72
2023/01/21 04:59:23;;;;;;;13.57;9.63;;;6.00;56.60;;;;;;5094541;28;20274;-71
2023/01/21 05:01:50;;;;;;;13.45;10.52;;;6.00;56.70;;;;;;5093487;28;20211;-71
2023/01/21 05:04:17;;;;;;;13.35;10.00;;;6.00;56.70;;;;;;5094784;28;20211;-72
2023/01/21 05:06:44;;;;;;;13.02;10.07;;;6.00;56.80;;;;;;5093822;28;20212;-72
2023/01/21 05:09:11;;;;;;;13.10;10.60;;;6.20;57.10;;;;;;5094237;28;20719;-71
2023/01/21 05:11:37;;;;;;;12.77;10.55;;;6.00;57.10;;;;;;5060406;28;20208;-72
2023/01/21 05:14:04;;;;;;;15.48;11.95;;;6.00;57.10;;;;;;5102615;28;20211;-72
2023/01/21 05:16:32;;;;;;;13.50;11.57;;;6.00;57.10;;;;;;5095295;28;20224;-71
2023/01/21 05:18:59;;;;;;;14.73;11.70;;;6.00;57.00;;;;;;5098560;28;20203;-72
2023/01/21 05:21:26;;;;;;;14.98;11.43;;;6.00;57.00;;;;;;5103980;28;20209;-72
2023/01/21 05:23:53;;;;;;;15.68;12.57;;;6.00;56.90;;;;;;5104465;28;20236;-73
2023/01/21 05:26:20;;;;;;;17.37;12.70;;;6.00;56.90;;;;;;5094288;28;20200;-71
2023/01/21 05:28:46;;;;;;;15.85;12.73;;;6.00;56.90;;;;;;5093024;28;20478;-71
2023/01/21 05:31:13;;;;;;;15.00;12.77;;;6.00;56.90;;;;;;5098614;28;20210;-71
2023/01/21 05:33:42;;;;;;;18.95;13.80;;;6.00;56.90;;;;;;5113545;28;20218;-71
2023/01/21 05:36:10;;;;;;;19.23;13.73;;;5.90;56.90;;;;;;5114053;28;20219;-71
2023/01/21 05:38:37;;;;;;;17.83;14.43;;;5.90;57.00;;;;;;5113825;28;20607;-71
2023/01/21 05:41:04;;;;;;;17.48;13.65;;;5.90;57.10;;;;;;5114256;28;20208;-71
2023/01/21 05:43:32;;;;;;;17.77;13.75;;;5.90;57.30;;;;;;5114240;28;20285;-71
2023/01/21 05:45:58;;;;;;;16.67;13.55;;;5.80;57.20;;;;;;5113958;28;20207;-71
2023/01/21 05:48:27;;;;;;;17.65;14.13;;;5.80;57.10;;;;;;5113713;28;20223;-71
2023/01/21 05:50:56;;;;;;;18.15;13.95;;;5.70;57.20;;;;;;5113522;28;20219;-71
2023/01/21 05:53:23;;;;;;;19.48;14.82;;;5.70;57.20;;;;;;5114155;28;20556;-71
2023/01/21 05:55:52;;;;;;;19.83;14.65;;;5.60;57.10;;;;;;5113352;28;20226;-70
2023/01/21 05:58:22;;;;;;;20.15;15.20;;;5.60;57.10;;;;;;5114091;28;20200;-70
2023/01/21 06:00:49;;;;;;;20.92;14.90;;;5.60;57.20;;;;;;5112995;28;20192;-70
2023/01/21 06:03:17;;;;;;;18.20;13.05;;;5.50;57.20;;;;;;5113739;28;20208;-70
2023/01/21 06:05:44;;;;;;;18.17;13.60;;;5.50;57.20;;;;;;5113018;28;20200;-71
2023/01/21 06:08:13;;;;;;;17.75;12.57;;;5.40;57.30;;;;;;5113805;28;20224;-70
2023/01/21 06:10:40;;;;;;;16.13;11.98;;;5.40;57.50;;;;;;5112620;28;20206;-70
2023/01/21 06:13:07;;;;;;;17.13;12.93;;;5.40;57.60;;;;;;5113692;28;20203;-71
2023/01/21 06:15:34;;;;;;;18.20;12.05;;;5.30;58.30;;;;;;5112883;28;20219;-70
2023/01/21 06:18:01;;;;;;;18.80;12.35;;;5.30;57.80;;;;;;5113046;28;20682;-70
2023/01/21 06:20:29;;;;;;;16.35;11.27;;;5.30;57.90;;;;;;5113564;28;20215;-70
2023/01/21 06:22:56;;;;;;;19.00;12.82;;;5.20;57.90;;;;;;5112458;28;20212;-70
2023/01/21 06:25:25;;;;;;;17.55;12.18;;;5.20;58.10;;;;;;5113078;28;20327;-70
2023/01/21 06:27:54;;;;;;;18.50;12.48;;;5.20;58.30;;;;;;5112565;28;20224;-71
2023/01/21 06:30:22;;;;;;;17.70;11.93;;;5.20;58.40;;;;;;5112920;28;20204;-71
2023/01/21 06:32:48;;;;;;;17.67;11.98;;;5.20;58.40;;;;;;5094292;28;20224;-71
2023/01/21 06:35:16;;;;;;;19.50;12.82;;;5.20;58.40;;;;;;5092879;28;20268;-71
2023/01/21 06:37:45;;;;;;;16.77;11.55;;;5.20;58.50;;;;;;5092115;28;20204;-71
2023/01/21 06:40:13;;;;;;;15.40;10.85;;;5.20;58.50;;;;;;5092669;28;20281;-70
2023/01/21 06:42:41;;;;;;;16.40;11.35;;;5.20;58.40;;;;;;5091932;28;20236;-71
2023/01/21 06:45:09;;;;;;;15.75;10.90;;;5.20;58.40;;;;;;5092286;28;20201;-71
2023/01/21 06:47:41;;;;;;;15.88;10.98;;;5.20;58.50;;;;;;5091571;28;20208;-71
2023/01/21 06:50:10;;;;;;;15.98;10.65;;;5.20;58.40;;;;;;5092525;28;20268;-72
2023/01/21 06:52:37;;;;;;;13.23;9.63;;;5.30;58.50;;;;;;5091448;28;20299;-72
2023/01/21 06:55:04;;;;;;;13.05;9.40;;;5.10;58.00;;;;;;5092215;28;20692;-72
2023/01/21 06:57:31;;;;;;;15.25;9.43;;;5.20;58.30;;;;;;5092124;28;20208;-70
2023/01/21 07:00:01;;;;;;;14.57;10.25;;;5.20;58.30;;;;;;5091095;28;20295;-71
2023/01/21 07:02:28;;;;;;;14.43;9.82;;;5.20;58.40;;;;;;5091903;28;20214;-71
2023/01/21 07:04:54;;;;;;;14.95;9.70;;;5.20;58.30;;;;;;5039210;28;20296;-71
2023/01/21 07:07:21;;;;;;;13.45;9.23;;;5.30;58.40;;;;;;5092203;28;20215;-72
2023/01/21 07:09:48;;;;;;;13.07;9.73;;;5.30;58.60;;;;;;5091594;28;20222;-71
2023/01/21 07:12:15;;;;;;;12.50;9.77;;;5.30;58.60;;;;;;5091753;28;20226;-71
2023/01/21 07:14:42;;;;;;;17.80;11.18;;;5.40;58.70;;;;;;5091441;28;20200;-71
2023/01/21 07:17:10;;;;;;;16.77;10.82;;;5.30;58.60;;;;;;5091762;28;20230;-70
2023/01/21 07:19:37;;;;;;;13.15;9.98;;;5.40;58.60;;;;;;5091507;28;20196;-71
2023/01/21 07:22:04;;;;;;;11.85;8.90;;;5.30;58.60;;;;;;5091707;28;20239;-71
2023/01/21 07:24:31;;;;;;;15.25;9.63;;;5.30;58.40;;;;;;5091609;28;20728;-71
2023/01/21 07:26:58;;;;;;;13.23;8.68;;;5.30;58.50;;;;;;5090898;28;20725;-70
2023/01/21 07:29:26;;;;;;;13.32;9.68;;;5.30;58.50;;;;;;5091702;28;20243;-71
2023/01/21 07:31:53;;;;;;;15.25;9.95;;;5.40;58.50;;;;;;5101471;28;20253;-72
2023/01/21 07:34:22;;;;;;;12.25;9.15;;;5.40;58.90;;;;;;5112033;28;20299;-71
2023/01/21 07:36:49;;;;;;;14.85;9.45;;;5.40;58.60;;;;;;5111296;28;20246;-70
2023/01/21 07:39:15;;;;;;;13.18;9.23;;;5.40;58.50;;;;;;5111995;28;20245;-71
2023/01/21 07:41:42;;;;;;;12.90;8.60;;;5.40;58.50;;;;;;5110675;28;20210;-71
2023/01/21 07:44:09;;;;;;;13.02;8.30;;;5.40;58.20;;;;;;5111734;28;20210;-71
2023/01/21 07:46:37;;;;;;;10.30;7.53;;;5.40;58.20;;;;;;5111643;28;20739;-71
2023/01/21 07:49:04;;;;;;;11.05;7.75;;;5.40;58.30;;;;;;5111574;28;20336;-72
2023/01/21 07:51:33;;;;;;;11.80;8.40;;;5.40;58.00;;;;;;5111682;28;20296;-72
2023/01/21 07:54:00;;;;;;;11.80;7.80;;;5.40;58.00;;;;;;5110876;28;20214;-72
2023/01/21 07:56:26;;;;;;;11.73;8.50;;;5.50;58.00;;;;;;5111542;28;20231;-72
2023/01/21 07:58:53;;;;;;;12.85;8.55;;;5.50;57.90;;;;;;5111203;28;20290;-70
2023/01/21 08:01:20;;;;;;;11.23;8.30;;;5.50;57.80;;;;;;5111541;28;20735;-71
2023/01/21 08:03:47;;;;;;;12.55;8.25;;;5.50;57.70;;;;;;5111307;28;20246;-71
2023/01/21 08:06:15;;;;;;;14.00;8.65;;;5.50;57.80;;;;;;5111876;28;20257;-71
2023/01/21 08:08:43;;;;;;;11.38;8.50;;;5.60;57.90;;;;;;5111013;28;20219;-71
2023/01/21 08:11:10;;;;;;;11.82;8.60;;;5.50;57.80;;;;;;5111484;28;20291;-72
2023/01/21 08:13:37;;;;;;;12.95;8.63;;;5.60;57.90;;;;;;5111558;28;20204;-70
2023/01/21 08:16:05;;;;;;;14.15;8.65;;;5.60;57.90;;;;;;5110944;28;20315;-71
2023/01/21 08:18:32;;;;;;;12.45;8.20;;;5.60;58.00;;;;;;5059101;28;20200;-71
2023/01/21 08:21:00;;;;;;;14.10;8.68;;;5.50;58.40;;;;;;5111152;28;20226;-71
2023/01/21 08:23:27;;;;;;;13.88;9.68;;;5.60;58.10;;;;;;5110310;28;20235;-71
2023/01/21 08:25:55;;;;;;;15.15;9.40;;;5.70;58.10;;;;;;5110458;28;20283;-71
2023/01/21 08:28:23;;;;;;;12.10;8.50;;;5.70;58.10;;;;;;5111005;28;20255;-71
2023/01/21 08:30:49;;;;;;;13.35;8.93;;;5.70;58.10;;;;;;5112734;28;20290;-71
2023/01/21 08:33:16;;;;;;;13.85;9.95;;;5.70;58.00;;;;;;5094831;28;20299;-71
2023/01/21 08:35:43;;;;;;;15.35;9.57;;;5.70;58.10;;;;;;5094535;28;20205;-71
2023/01/21 08:38:10;;;;;;;14.40;10.32;;;5.70;58.10;;;;;;5094541;28;20311;-71
2023/01/21 08:40:37;;;;;;;16.42;12.55;;;5.80;58.10;;;;;;5095075;28;20247;-71
2023/01/21 08:43:06;;;;;;;15.35;13.57;;;5.80;58.10;;;;;;5094097;28;20204;-71
2023/01/21 08:45:33;;;;;;;17.17;12.02;;;5.80;58.60;;;;;;5094808;28;20287;-70
2023/01/21 08:48:03;;;;;;;20.17;11.43;;;5.90;58.10;;;;;;5094289;28;20200;-71
2023/01/21 08:50:30;;;;;;;15.60;11.77;;;5.90;58.10;;;;;;5094787;28;20562;-71
2023/01/21 08:52:56;;;;;;;16.95;11.20;;;5.80;58.10;;;;;;5093739;28;20226;-71
2023/01/21 08:55:25;;;;;;;15.48;11.23;;;6.00;58.40;;;;;;5094927;28;20232;-72
2023/01/21 08:57:53;;;;;;;15.15;10.65;;;6.00;58.50;;;;;;5094139;28;20210;-71
2023/01/21 09:00:22;;;;;;;18.52;10.95;;;6.10;58.40;;;;;;5095599;28;20289;-72
2023/01/21 09:02:49;;;;;;;14.50;10.57;;;6.00;58.30;;;;;;5094374;28;20656;-71
2023/01/21 09:05:17;;;;;;;17.30;11.63;;;6.10;58.40;;;;;;5094853;28;20277;-71
2023/01/21 09:07:44;;;;;;;18.30;12.15;;;6.10;58.50;;;;;;5093414;28;20204;-70
2023/01/21 09:10:59;;;;;;;16.80;11.52;;;6.30;58.50;;;;;;5094359;28;20220;-72
2023/01/21 09:12:59;;;;;;;19.38;12.05;;;6.10;58.40;;;;;;5093239;28;20215;-71
2023/01/21 09:15:27;;;;;;;15.55;10.60;;;6.10;58.50;;;;;;5094243;28;20336;-70
2023/01/21 09:17:54;;;;;;;16.73;11.50;;;6.30;58.70;;;;;;5093385;28;20209;-71
2023/01/21 09:20:21;;;;;;;15.05;10.77;;;6.10;58.40;;;;;;5094274;28;20228;-71
2023/01/21 09:22:48;;;;;;;16.85;11.50;;;6.10;58.50;;;;;;5092643;28;20656;-72
2023/01/21 09:25:15;;;;;;;16.58;10.82;;;6.20;58.70;;;;;;5093643;28;20331;-73
2023/01/21 09:27:42;;;;;;;17.27;11.10;;;6.20;58.40;;;;;;5094119;28;20308;-72
2023/01/21 09:30:10;;;;;;;15.07;10.65;;;6.20;58.30;;;;;;5093776;28;20576;-72
2023/01/21 09:32:38;;;;;;;14.30;10.30;;;6.20;58.30;;;;;;5110548;28;20203;-71
2023/01/21 09:35:06;;;;;;;15.93;11.05;;;6.20;58.10;;;;;;5113778;28;20550;-71
2023/01/21 09:37:36;;;;;;;15.73;9.98;;;6.30;58.50;;;;;;5113832;28;20233;-71
2023/01/21 09:40:03;;;;;;;12.77;9.93;;;6.30;58.10;;;;;;5113633;28;20223;-71
2023/01/21 09:42:33;;;;;;;15.57;10.48;;;6.30;57.90;;;;;;5113307;28;20709;-71
2023/01/21 09:45:02;;;;;;;14.68;10.05;;;6.40;58.00;;;;;;5113716;28;20211;-71
2023/01/21 09:47:33;;;;;;;16.17;11.48;;;6.40;58.00;;;;;;5113930;28;20299;-71
2023/01/21 09:50:05;;;;;;;14.65;10.95;;;6.50;58.10;;;;;;5113061;28;20269;-72
2023/01/21 09:52:39;;;;;;;14.75;11.43;;;6.60;58.00;;;;;;5113786;28;20216;-72
2023/01/21 09:55:14;;;;;;;15.00;10.13;;;6.70;57.90;;;;;;5113298;28;20279;-72
2023/01/21 09:58:09;;;;;;;14.50;11.25;;;6.70;57.90;;;;;;5114095;28;20278;-72
2023/01/21 10:00:40;;;;;;;14.48;10.98;;;6.80;58.00;;;;;;5113743;28;20184;-72
2023/01/21 10:03:17;;;;;;;15.27;10.90;;;6.80;58.00;;;;;;5113282;28;20288;-72
2023/01/21 10:06:11;;;;;;;14.52;10.70;;;6.80;57.60;;;;;;5113480;28;20192;-72
2023/01/21 10:08:52;;;;;;;15.85;12.02;;;6.80;57.70;;;;;;5113612;28;20227;-73
2023/01/21 10:11:34;;;;;;;14.15;11.05;;;6.90;57.50;;;;;;5113774;28;20279;-72
2023/01/21 10:14:16;;;;;;;15.40;11.32;;;6.90;57.40;;;;;;5113370;28;20194;-72
2023/01/21 10:16:47;;;;;;;15.82;11.45;;;6.90;57.40;;;;;;5113632;28;20310;-72
2023/01/21 10:19:19;;;;;;;15.00;11.38;;;6.90;58.00;;;;;;5113563;28;20290;-72
2023/01/21 10:21:54;;;;;;;13.88;10.50;;;6.90;57.40;;;;;;5113514;28;20277;-71
2023/01/21 10:24:25;;;;;;;16.08;12.32;;;7.00;57.50;;;;;;5077126;28;20242;-72
2023/01/21 10:26:53;;;;;;;14.95;11.50;;;6.90;57.40;;;;;;5112679;28;20188;-72
2023/01/21 10:29:25;;;;;;;16.45;11.23;;;7.00;57.70;;;;;;5113346;28;20258;-72
2023/01/21 10:31:58;;;;;;;16.08;11.05;;;7.00;57.50;;;;;;5101964;28;20185;-72
2023/01/21 10:34:29;;;;;;;15.00;12.13;;;7.10;57.40;;;;;;5092663;28;20226;-72
2023/01/21 10:37:03;;;;;;;16.33;12.20;;;7.10;57.20;;;;;;5092197;28;20224;-72
2023/01/21 10:39:39;;;;;;;17.65;12.18;;;7.20;57.10;;;;;;5092726;28;20220;-71
2023/01/21 10:42:31;;;;;;;15.20;11.40;;;7.30;56.80;;;;;;5091919;28;20690;-71
2023/01/21 10:45:04;;;;;;;14.83;11.50;;;7.30;56.70;;;;;;5092042;28;20276;-71
2023/01/21 10:47:40;;;;;;;18.02;12.15;;;7.30;56.70;;;;;;5092895;28;20435;-71
2023/01/21 10:50:25;;;;;;;15.63;11.73;;;7.30;56.70;;;;;;5091464;28;20222;-73
2023/01/21 10:52:59;;;;;;;16.77;12.53;;;7.30;56.70;;;;;;5090867;28;20517;-70
2023/01/21 10:55:40;;;;;;;17.92;13.18;;;7.30;56.70;;;;;;5092354;28;20864;-72
2023/01/21 10:58:18;;;;;;;17.08;13.00;;;7.30;56.80;;;;;;5091960;28;20196;-71
2023/01/21 11:00:49;;;;;;;15.48;12.95;;;7.30;56.70;;;;;;5092452;28;20195;-72
2023/01/21 11:03:20;;;;;;;19.60;13.57;;;7.30;56.70;;;;;;5092006;28;20224;-72
2023/01/21 11:05:48;;;;;;;18.63;13.30;;;7.30;56.50;;;;;;5091911;28;20430;-72
2023/01/21 11:08:20;;;;;;;16.70;12.57;;;7.30;56.50;;;;;;5092081;28;20287;-71
2023/01/21 11:10:50;;;;;;;18.37;13.80;;;7.30;56.50;;;;;;5039918;28;20255;-71
2023/01/21 11:13:16;;;;;;;17.30;13.77;;;7.40;56.50;;;;;;5092126;28;20541;-71
2023/01/21 11:15:46;;;;;;;17.65;14.35;;;7.40;56.40;;;;;;5091869;28;20475;-70
2023/01/21 11:18:33;;;;;;;18.73;14.47;;;7.40;56.40;;;;;;5091531;28;20244;-71
2023/01/21 11:21:02;;;;;;;19.92;14.55;;;7.40;56.40;;;;;;5091489;28;20510;-70
2023/01/21 11:23:33;;;;;;;22.02;15.88;;;7.40;56.40;;;;;;5091766;28;20659;-71
2023/01/21 11:26:02;;;;;;;19.87;14.00;;;7.50;56.60;;;;;;5091071;28;20195;-72
2023/01/21 11:28:30;;;;;;;18.88;13.93;;;7.30;56.70;;;;;;5091875;28;20819;-70
2023/01/21 11:31:08;;;;;;;23.30;14.93;;;7.30;56.60;;;;;;5093868;28;20570;-71
2023/01/21 11:33:35;;;;;;;18.67;14.43;;;7.20;56.60;;;;;;5111717;28;20188;-70
2023/01/21 11:36:15;;;;;;;20.77;14.57;;;7.20;56.80;;;;;;5111389;28;20203;-71
2023/01/21 11:38:46;;;;;;;19.05;15.07;;;7.20;56.90;;;;;;5112222;28;20300;-71
2023/01/21 11:41:20;;;;;;;20.92;15.68;;;7.10;56.90;;;;;;5111492;28;20184;-71
2023/01/21 11:43:48;;;;;;;18.25;13.80;;;7.10;57.00;;;;;;5112180;28;20252;-71
2023/01/21 11:46:33;;;;;;;20.17;14.45;;;7.10;57.10;;;;;;5112298;28;20235;-70
2023/01/21 11:49:29;;;;;;;21.35;14.32;;;7.10;57.20;;;;;;5111386;28;20586;-71
2023/01/21 11:52:16;;;;;;;20.92;14.63;;;7.00;57.50;;;;;;5111069;28;20287;-71
2023/01/21 11:54:45;;;;;;;19.25;13.63;;;7.10;57.70;;;;;;5111398;28;20295;-71
2023/01/21 11:57:26;;;;;;;20.52;13.68;;;7.10;57.50;;;;;;5111430;28;20207;-70
2023/01/21 11:59:57;;;;;;;19.48;14.05;;;6.90;57.60;;;;;;5111353;28;20226;-71
2023/01/21 12:02:29;;;;;;;19.77;14.60;;;6.90;57.70;;;;;;5111604;28;20192;-71
2023/01/21 12:05:00;;;;;;;18.45;13.48;;;6.90;57.50;;;;;;5113614;28;20184;-71
2023/01/21 12:07:30;;;;;;;19.63;13.63;;;6.80;57.50;;;;;;5116433;28;20188;-70
2023/01/21 12:10:07;;;;;;;17.58;13.40;;;6.70;57.60;;;;;;5115466;28;20758;-73
2023/01/21 12:12:57;;;;;;;20.45;14.23;;;6.80;57.80;;;;;;5116140;28;20191;-70
2023/01/21 12:15:53;;;;;;;19.80;13.30;;;6.80;57.90;;;;;;5115719;28;20226;-73
2023/01/21 12:18:31;;;;;;;18.38;13.75;;;6.80;57.90;;;;;;5115925;28;20199;-72
2023/01/21 12:21:04;;;;;;;18.77;13.05;;;6.70;57.90;;;;;;5115278;28;20295;-72
2023/01/21 12:23:49;;;;;;;17.90;12.88;;;6.70;58.00;;;;;;5115527;28;20678;-70
2023/01/21 12:26:36;;;;;;;18.13;13.20;;;6.70;58.10;;;;;;5115382;28;20219;-71
2023/01/21 12:29:18;;;;;;;18.30;13.50;;;6.70;58.80;;;;;;5114806;28;20632;-72
2023/01/21 12:31:48;;;;;;;19.27;12.82;;;6.60;58.10;;;;;;5105964;28;20276;-72
2023/01/21 12:34:21;;;;;;;19.17;12.65;;;6.70;58.00;;;;;;5094451;28;20243;-73
2023/01/21 12:36:53;;;;;;;24.13;14.00;;;6.70;58.10;;;;;;5095687;28;20197;-71
2023/01/21 12:39:26;;;;;;;18.67;13.30;;;6.60;58.20;;;;;;5094877;28;20195;-70
2023/01/21 12:42:04;;;;;;;17.20;12.15;;;6.50;58.30;;;;;;5095793;28;20284;-73
2023/01/21 12:44:37;;;;;;;20.02;14.10;;;6.50;58.30;;;;;;5095985;28;20188;-72
2023/01/21 12:47:13;;;;;;;18.60;13.02;;;6.40;58.30;;;;;;5094753;28;20216;-70
2023/01/21 12:49:55;;;;;;;19.17;13.55;;;6.40;58.40;;;;;;5094607;28;20254;-73
2023/01/21 12:52:32;;;;;;;21.33;14.02;;;6.40;58.50;;;;;;5095147;28;20220;-70
2023/01/21 12:55:06;;;;;;;17.20;12.88;;;6.40;58.60;;;;;;5094121;28;20283;-72
2023/01/21 12:57:41;;;;;;;18.27;12.90;;;6.40;58.70;;;;;;5095019;28;20188;-70
2023/01/21 13:00:17;;;;;;;18.95;13.20;;;6.40;58.80;;;;;;5093807;28;20195;-71
2023/01/21 13:02:51;;;;;;;17.27;12.80;;;6.50;59.00;;;;;;5094770;28;20193;-73
2023/01/21 13:05:24;;;;;;;17.83;13.25;;;6.50;58.90;;;;;;5094126;28;20198;-71
2023/01/21 13:07:59;;;;;;;18.08;12.68;;;6.50;58.80;;;;;;5094374;28;20199;-70
2023/01/21 13:10:30;;;;;;;18.27;12.90;;;6.50;59.10;;;;;;5094406;28;20736;-72